Time;durP1;ratioP1;P1;durP2;ratioP2;P2;SDS_P1;SDS_P2;PMS_P1;PMS_P2;Temp;Humidity;BMP_temperature;BMP_pressure;BME280_temperature;BME280_humidity;BME280_pressure;Samples;Min_cycle;Max_cycle;Signal;HPM_P1;HPM_P2
2022/11/10 00:00:45;;;;;;;13.35;3.30;;;12.10;99.90;;;;;;6193612;23;20029;-84
2022/11/10 00:03:11;;;;;;;14.57;3.53;;;12.00;99.90;;;;;;6202170;23;20028;-84
2022/11/10 00:05:38;;;;;;;11.55;2.90;;;12.00;99.90;;;;;;6199084;23;20016;-84
2022/11/10 00:08:06;;;;;;;16.00;3.28;;;12.00;99.90;;;;;;6198613;23;20027;-84
2022/11/10 00:10:32;;;;;;;17.73;3.70;;;12.00;99.90;;;;;;6175009;23;20017;-84
2022/11/10 00:13:02;;;;;;;23.75;4.72;;;12.00;99.90;;;;;;6174109;23;20005;-84
2022/11/10 00:18:12;;;;;;;17.98;3.70;;;12.00;99.90;;;;;;6188194;23;20341;-83
2022/11/10 00:20:38;;;;;;;13.50;3.35;;;12.00;99.90;;;;;;6159440;23;20009;-82
2022/11/10 00:23:04;;;;;;;15.63;3.85;;;12.00;99.90;;;;;;6159499;23;20021;-83
2022/11/10 00:25:31;;;;;;;14.27;3.25;;;12.00;99.90;;;;;;6159386;23;20417;-83
2022/11/10 00:27:58;;;;;;;19.10;4.68;;;12.00;99.90;;;;;;6185613;23;20047;-83
2022/11/10 00:30:25;;;;;;;14.48;3.70;;;12.00;99.90;;;;;;6159601;23;20060;-83
2022/11/10 00:32:50;;;;;;;16.50;4.07;;;11.90;99.90;;;;;;6159332;23;20452;-83
2022/11/10 00:35:17;;;;;;;16.70;3.65;;;11.90;99.90;;;;;;6185694;23;20009;-83
2022/11/10 00:37:42;;;;;;;16.67;3.20;;;11.90;99.90;;;;;;6159319;23;20005;-83
2022/11/10 00:40:09;;;;;;;14.57;3.97;;;11.90;99.90;;;;;;6160331;23;20031;-83
2022/11/10 00:42:34;;;;;;;17.30;3.58;;;11.90;99.90;;;;;;6159178;23;20092;-83
2022/11/10 00:45:02;;;;;;;14.65;3.10;;;11.90;99.90;;;;;;6159620;23;20088;-83
2022/11/10 00:47:27;;;;;;;18.80;4.25;;;11.90;99.90;;;;;;6159842;23;20011;-83
2022/11/10 00:49:53;;;;;;;17.55;3.25;;;11.80;99.90;;;;;;6159450;23;20096;-81
2022/11/10 00:52:19;;;;;;;16.00;3.13;;;11.80;99.90;;;;;;6159536;23;20421;-81
2022/11/10 00:54:44;;;;;;;12.63;3.10;;;11.80;99.90;;;;;;6159568;23;20421;-81
2022/11/10 00:57:10;;;;;;;14.68;3.35;;;11.80;99.90;;;;;;6134918;23;20013;-82
2022/11/10 00:59:35;;;;;;;12.82;3.22;;;11.80;99.90;;;;;;6159629;23;20137;-81
2022/11/10 01:02:01;;;;;;;10.57;2.92;;;11.80;99.90;;;;;;6159328;23;20336;-81
2022/11/10 01:04:27;;;;;;;15.63;3.05;;;11.80;99.90;;;;;;6159472;23;20009;-81
2022/11/10 01:06:52;;;;;;;13.10;2.97;;;11.80;99.90;;;;;;6185395;23;19997;-81
2022/11/10 01:09:38;;;;;;;14.00;2.72;;;11.80;99.90;;;;;;6163739;23;20017;-81
2022/11/10 01:12:04;;;;;;;17.67;4.10;;;11.70;99.90;;;;;;6184121;23;20013;-81
2022/11/10 01:14:29;;;;;;;19.50;3.08;;;11.70;99.90;;;;;;6159171;23;20455;-81
2022/11/10 01:16:55;;;;;;;15.38;3.10;;;11.70;99.90;;;;;;6185575;23;20417;-81
2022/11/10 01:22:42;;;;;;;18.42;3.47;;;11.70;99.90;;;;;;6185494;23;20015;-81
2022/11/10 01:25:08;;;;;;;14.40;3.38;;;11.70;99.90;;;;;;6186233;23;20428;-83
2022/11/10 01:27:34;;;;;;;15.13;3.28;;;11.70;99.90;;;;;;6186473;23;20013;-83
2022/11/10 01:30:00;;;;;;;14.63;3.00;;;11.70;99.90;;;;;;6195309;23;20008;-83
2022/11/10 01:32:26;;;;;;;17.70;4.18;;;11.70;99.90;;;;;;6172106;23;20084;-83
2022/11/10 01:34:51;;;;;;;16.08;3.13;;;11.70;99.90;;;;;;6171133;23;20424;-83
2022/11/10 01:37:17;;;;;;;17.17;3.67;;;11.70;99.90;;;;;;6146051;23;20013;-83
2022/11/10 01:39:43;;;;;;;12.73;3.33;;;11.60;99.90;;;;;;6192507;23;20063;-84
2022/11/10 01:42:08;;;;;;;15.60;3.55;;;11.60;99.90;;;;;;6136213;23;20443;-84
2022/11/10 01:44:35;;;;;;;12.35;2.92;;;11.60;99.90;;;;;;6160936;23;20055;-84
2022/11/10 01:47:03;;;;;;;16.80;3.38;;;11.60;99.90;;;;;;6187431;23;20008;-84
2022/11/10 01:49:31;;;;;;;16.48;2.92;;;11.60;99.90;;;;;;6161107;23;20005;-84
2022/11/10 01:51:56;;;;;;;16.45;3.25;;;11.60;99.90;;;;;;6161089;23;20005;-84
2022/11/10 01:54:28;;;;;;;14.00;2.90;;;11.60;99.90;;;;;;6185588;23;20063;-84
2022/11/10 01:57:01;;;;;;;13.38;3.30;;;11.50;99.90;;;;;;6160850;23;20055;-84
2022/11/10 01:59:31;;;;;;;14.77;3.40;;;11.50;99.90;;;;;;6185441;23;20012;-84
2022/11/10 02:02:05;;;;;;;15.33;3.33;;;11.50;99.90;;;;;;6187203;23;20083;-84
2022/11/10 02:04:32;;;;;;;19.02;3.25;;;11.50;99.90;;;;;;6185120;23;20382;-84
2022/11/10 02:06:58;;;;;;;11.48;2.95;;;11.50;99.90;;;;;;6159231;23;20433;-84
2022/11/10 02:09:24;;;;;;;17.90;3.47;;;11.50;99.90;;;;;;6190717;23;20024;-84
2022/11/10 02:11:51;;;;;;;15.98;3.25;;;11.50;99.90;;;;;;6185718;23;20005;-84
2022/11/10 02:14:17;;;;;;;15.63;3.60;;;11.50;99.90;;;;;;6187051;23;20015;-83
2022/11/10 02:16:43;;;;;;;17.20;3.33;;;11.50;99.90;;;;;;6187159;23;20044;-83
2022/11/10 02:19:20;;;;;;;17.75;3.95;;;11.50;99.90;;;;;;6185554;23;20282;-83
2022/11/10 02:21:46;;;;;;;13.07;2.92;;;11.50;99.90;;;;;;6186998;23;20020;-83
2022/11/10 02:24:12;;;;;;;15.15;3.35;;;11.50;99.90;;;;;;6160574;23;20364;-83
2022/11/10 02:26:51;;;;;;;11.85;3.10;;;11.40;99.90;;;;;;6185444;23;20005;-83
2022/11/10 02:29:17;;;;;;;14.18;3.10;;;11.40;99.90;;;;;;6185329;23;20000;-83
2022/11/10 02:31:42;;;;;;;20.42;4.05;;;11.40;99.90;;;;;;6160623;23;20005;-83
2022/11/10 02:34:27;;;;;;;17.27;3.97;;;11.40;99.90;;;;;;6185695;23;20005;-83
2022/11/10 02:36:53;;;;;;;10.82;3.25;;;11.40;99.90;;;;;;6210356;23;20036;-83
2022/11/10 02:39:57;;;;;;;14.43;3.03;;;11.40;99.90;;;;;;6185190;23;20421;-83
2022/11/10 02:42:23;;;;;;;18.15;4.38;;;11.40;99.90;;;;;;6210214;23;20032;-83
2022/11/10 02:44:49;;;;;;;12.45;3.30;;;11.40;99.90;;;;;;6160399;23;20001;-83
2022/11/10 02:47:15;;;;;;;14.38;3.70;;;11.40;99.90;;;;;;6187692;23;20079;-84
2022/11/10 02:49:40;;;;;;;16.83;4.38;;;11.30;99.90;;;;;;6185667;23;20372;-84
2022/11/10 02:52:06;;;;;;;13.50;2.80;;;11.40;99.90;;;;;;6185782;23;20009;-84
2022/11/10 02:54:32;;;;;;;16.80;3.83;;;11.30;99.90;;;;;;6185765;23;20009;-84
2022/11/10 02:56:57;;;;;;;16.52;3.30;;;11.30;99.90;;;;;;6160593;23;20001;-84
2022/11/10 02:59:26;;;;;;;16.00;3.30;;;11.30;99.90;;;;;;6185576;23;20005;-84
2022/11/10 03:01:52;;;;;;;17.30;3.03;;;11.30;99.90;;;;;;6159995;23;20009;-84
2022/11/10 03:04:17;;;;;;;19.30;3.83;;;11.30;99.90;;;;;;6162900;23;20020;-83
2022/11/10 03:06:43;;;;;;;24.45;4.35;;;11.30;99.90;;;;;;6185125;23;20416;-83
2022/11/10 03:09:08;;;;;;;14.25;3.13;;;11.30;99.90;;;;;;6181998;23;20013;-83
2022/11/10 03:11:34;;;;;;;15.98;3.35;;;11.30;99.90;;;;;;6160050;23;20001;-83
2022/11/10 03:14:00;;;;;;;16.92;3.90;;;11.30;99.90;;;;;;6160107;23;20013;-83
2022/11/10 03:16:25;;;;;;;16.08;3.65;;;11.30;99.90;;;;;;6160015;23;20005;-83
2022/11/10 03:18:51;;;;;;;17.30;3.10;;;11.30;99.90;;;;;;6135340;23;20016;-83
2022/11/10 03:21:17;;;;;;;16.95;3.38;;;11.30;99.90;;;;;;6135824;23;20005;-81
2022/11/10 03:23:42;;;;;;;16.13;3.38;;;11.30;99.90;;;;;;6159920;23;20059;-81
2022/11/10 03:26:08;;;;;;;13.38;3.38;;;11.30;99.90;;;;;;6111069;23;20451;-81
2022/11/10 03:28:34;;;;;;;13.15;3.10;;;11.20;99.90;;;;;;6135962;23;20001;-81
2022/11/10 03:30:59;;;;;;;15.77;3.70;;;11.20;99.90;;;;;;6186235;23;20001;-81
2022/11/10 03:33:31;;;;;;;14.05;3.58;;;11.20;99.90;;;;;;6186222;23;20456;-81
2022/11/10 03:36:08;;;;;;;19.17;3.83;;;11.20;99.90;;;;;;6135392;23;20061;-81
2022/11/10 03:38:39;;;;;;;17.90;4.10;;;11.20;99.90;;;;;;6136428;23;20036;-81
2022/11/10 03:41:05;;;;;;;13.25;3.60;;;11.20;99.90;;;;;;6134112;23;20009;-81
2022/11/10 03:43:30;;;;;;;19.85;3.60;;;11.20;99.90;;;;;;6186089;23;20067;-81
2022/11/10 03:45:56;;;;;;;12.65;4.10;;;11.20;99.90;;;;;;6159906;23;20005;-81
2022/11/10 03:48:21;;;;;;;16.45;3.78;;;11.20;99.90;;;;;;6159830;23;20008;-81
2022/11/10 03:50:47;;;;;;;10.70;3.33;;;11.20;99.90;;;;;;6159828;23;20091;-81
2022/11/10 03:53:13;;;;;;;14.40;4.10;;;11.20;99.90;;;;;;6110627;23;20013;-83
2022/11/10 03:55:38;;;;;;;16.17;3.80;;;11.20;99.90;;;;;;6185949;23;20009;-83
2022/11/10 03:58:04;;;;;;;17.35;3.50;;;11.20;99.90;;;;;;6186114;23;20421;-83
2022/11/10 04:00:29;;;;;;;18.40;3.45;;;11.20;99.90;;;;;;6134980;23;20021;-83
2022/11/10 04:02:55;;;;;;;15.35;3.28;;;11.20;99.90;;;;;;6159286;23;20070;-83
2022/11/10 04:10:55;;;;;;;13.93;3.13;;;11.20;99.90;;;;;;6185412;23;20083;-83
2022/11/10 04:16:05;;;;;;;17.55;3.60;;;11.20;99.90;;;;;;6163740;23;20024;-83
2022/11/10 04:18:46;;;;;;;15.82;3.15;;;11.20;99.90;;;;;;6159700;23;20087;-83
2022/11/10 04:21:11;;;;;;;18.70;3.53;;;11.20;99.90;;;;;;6159861;23;20083;-83
2022/11/10 04:23:37;;;;;;;11.65;3.28;;;11.20;99.90;;;;;;6185969;23;20413;-83
2022/11/10 04:28:58;;;;;;;16.35;3.30;;;11.10;99.90;;;;;;6186586;23;20447;-83
2022/11/10 04:31:25;;;;;;;15.25;3.10;;;11.20;99.90;;;;;;6159838;23;20440;-83
2022/11/10 04:33:51;;;;;;;21.20;4.03;;;11.10;99.90;;;;;;6159548;23;20001;-83
2022/11/10 04:36:20;;;;;;;14.27;2.90;;;11.20;99.90;;;;;;6159664;23;20009;-83
2022/11/10 04:38:46;;;;;;;21.02;3.63;;;11.20;99.90;;;;;;6159671;23;20016;-83
2022/11/10 04:41:12;;;;;;;21.88;3.78;;;11.10;99.90;;;;;;6185501;23;20336;-83
2022/11/10 04:43:38;;;;;;;16.65;3.92;;;11.20;99.90;;;;;;6185508;23;20005;-84
2022/11/10 04:46:06;;;;;;;16.13;3.40;;;11.20;99.90;;;;;;6159391;23;20004;-83
2022/11/10 04:48:33;;;;;;;20.85;4.50;;;11.10;99.90;;;;;;6159469;23;20362;-83
2022/11/10 04:51:03;;;;;;;17.55;3.10;;;11.10;99.90;;;;;;6184121;23;20431;-83
2022/11/10 04:53:29;;;;;;;14.45;3.30;;;11.10;99.90;;;;;;6159427;23;20013;-83
2022/11/10 04:55:55;;;;;;;20.20;4.97;;;11.10;99.90;;;;;;6134778;23;20336;-83
2022/11/10 04:58:20;;;;;;;14.32;2.92;;;11.10;99.90;;;;;;6185589;23;20385;-83
2022/11/10 05:00:46;;;;;;;14.85;3.67;;;11.10;99.90;;;;;;6134945;23;20314;-83
2022/11/10 05:03:15;;;;;;;14.85;3.33;;;11.10;99.90;;;;;;6159354;23;20337;-83
2022/11/10 05:05:40;;;;;;;20.77;4.35;;;11.10;99.90;;;;;;6160116;23;20005;-83
2022/11/10 05:08:07;;;;;;;13.43;3.40;;;11.10;99.90;;;;;;6159122;23;20024;-83
2022/11/10 05:10:34;;;;;;;16.83;3.25;;;11.10;99.90;;;;;;6154161;23;20457;-83
2022/11/10 05:13:00;;;;;;;20.15;3.58;;;11.10;99.90;;;;;;6158979;23;20037;-83
2022/11/10 05:15:26;;;;;;;16.88;3.47;;;11.10;99.90;;;;;;6134274;23;20063;-83
2022/11/10 05:17:53;;;;;;;18.20;2.80;;;11.00;99.90;;;;;;6159026;23;20065;-83
2022/11/10 05:20:21;;;;;;;14.10;3.65;;;11.00;99.90;;;;;;6183720;23;20013;-83
2022/11/10 05:23:36;;;;;;;16.05;3.15;;;11.00;99.90;;;;;;6183729;23;20087;-83
2022/11/10 05:25:38;;;;;;;19.67;2.92;;;11.00;99.90;;;;;;6213715;23;20096;-83
2022/11/10 05:28:05;;;;;;;21.60;4.28;;;11.00;99.90;;;;;;6190441;23;19996;-83
2022/11/10 05:30:31;;;;;;;15.93;3.05;;;10.90;99.90;;;;;;6217676;23;19997;-83
2022/11/10 05:32:57;;;;;;;15.55;2.95;;;10.90;99.90;;;;;;6190829;23;20005;-83
2022/11/10 05:35:23;;;;;;;17.17;2.85;;;10.90;99.90;;;;;;6190519;23;20001;-83
2022/11/10 05:37:49;;;;;;;18.75;3.17;;;10.90;99.90;;;;;;6190675;23;20004;-83
2022/11/10 05:40:15;;;;;;;14.60;3.08;;;11.00;99.90;;;;;;6191004;23;20009;-83
2022/11/10 05:42:51;;;;;;;15.13;2.97;;;10.90;99.90;;;;;;6165180;23;20032;-82
2022/11/10 05:45:19;;;;;;;16.40;3.05;;;10.90;99.90;;;;;;6190409;23;20328;-82
2022/11/10 05:47:45;;;;;;;18.52;3.50;;;10.90;99.90;;;;;;6190391;23;20420;-83
2022/11/10 05:50:10;;;;;;;20.40;3.28;;;10.90;99.90;;;;;;6166125;23;20001;-83
2022/11/10 05:52:45;;;;;;;15.35;2.75;;;10.90;99.90;;;;;;6165939;23;20447;-83
2022/11/10 05:55:12;;;;;;;15.82;3.20;;;10.90;99.90;;;;;;6190717;23;20416;-83
2022/11/10 05:57:38;;;;;;;20.90;3.80;;;10.90;99.90;;;;;;6190659;23;20008;-83
2022/11/10 06:00:05;;;;;;;21.67;3.47;;;10.90;99.90;;;;;;6217195;23;20320;-83
2022/11/10 06:02:30;;;;;;;18.25;3.50;;;10.90;99.90;;;;;;6190093;23;20420;-83
2022/11/10 06:04:56;;;;;;;18.65;3.55;;;10.90;99.90;;;;;;6190682;23;20032;-83
2022/11/10 06:07:22;;;;;;;21.58;3.17;;;10.90;99.90;;;;;;6165834;23;20051;-83
2022/11/10 06:09:47;;;;;;;19.65;4.63;;;10.90;99.90;;;;;;6165764;23;20007;-82
2022/11/10 06:12:14;;;;;;;18.50;3.28;;;10.90;99.90;;;;;;6165677;23;20329;-83
2022/11/10 06:14:40;;;;;;;19.58;3.55;;;10.80;99.90;;;;;;6165846;23;20427;-83
2022/11/10 06:17:06;;;;;;;21.08;3.30;;;10.90;99.90;;;;;;6190066;23;20015;-83
2022/11/10 06:19:31;;;;;;;15.32;3.42;;;10.90;99.90;;;;;;6190344;23;20581;-83
2022/11/10 06:21:57;;;;;;;15.48;3.15;;;10.80;99.90;;;;;;6169902;23;20084;-82
2022/11/10 06:24:23;;;;;;;21.02;3.40;;;10.80;99.90;;;;;;6183730;23;20071;-81
2022/11/10 06:26:48;;;;;;;18.67;3.55;;;10.80;99.90;;;;;;6184940;23;20313;-81
2022/11/10 06:29:16;;;;;;;14.85;2.97;;;10.80;99.90;;;;;;6160831;23;20096;-81
2022/11/10 06:31:42;;;;;;;14.85;2.95;;;10.90;99.90;;;;;;6187243;23;20001;-81
2022/11/10 06:34:07;;;;;;;18.52;3.20;;;10.80;99.90;;;;;;6160715;23;20006;-81
2022/11/10 06:36:33;;;;;;;12.70;2.85;;;10.80;99.90;;;;;;6185683;23;20005;-81
2022/11/10 06:38:59;;;;;;;19.73;3.30;;;10.80;99.90;;;;;;6185643;23;20016;-81
2022/11/10 06:41:24;;;;;;;18.58;3.88;;;10.80;99.90;;;;;;6185593;23;20041;-83
2022/11/10 06:43:50;;;;;;;13.85;2.83;;;10.80;99.90;;;;;;6185307;23;20009;-83
2022/11/10 06:46:16;;;;;;;17.08;2.75;;;10.80;99.90;;;;;;6160451;23;20313;-83
2022/11/10 06:48:42;;;;;;;13.65;2.50;;;10.80;99.90;;;;;;6185182;23;19998;-82
2022/11/10 06:51:07;;;;;;;14.88;3.67;;;10.80;99.90;;;;;;6186923;23;20004;-83
2022/11/10 06:53:33;;;;;;;17.65;4.00;;;10.80;99.90;;;;;;6184853;23;20035;-83
2022/11/10 06:55:59;;;;;;;19.25;4.82;;;10.80;99.90;;;;;;6183490;23;20005;-83
2022/11/10 06:58:25;;;;;;;17.85;3.20;;;10.80;99.90;;;;;;6160142;23;20005;-83
2022/11/10 07:00:51;;;;;;;15.35;3.47;;;10.80;99.90;;;;;;6160031;23;20462;-83
2022/11/10 07:03:16;;;;;;;19.40;3.55;;;10.80;99.90;;;;;;6183658;23;20024;-82
2022/11/10 07:05:42;;;;;;;16.48;3.35;;;10.80;99.90;;;;;;6185048;23;20005;-83
2022/11/10 07:08:15;;;;;;;17.90;3.35;;;10.80;99.90;;;;;;6160329;23;20058;-83
2022/11/10 07:10:42;;;;;;;14.25;2.92;;;10.80;99.90;;;;;;6186930;23;20001;-83
2022/11/10 07:13:09;;;;;;;18.15;4.05;;;10.80;99.90;;;;;;6160313;23;20008;-84
2022/11/10 07:15:35;;;;;;;20.23;3.10;;;10.80;99.90;;;;;;6186284;23;20337;-84
2022/11/10 07:18:02;;;;;;;14.23;2.92;;;10.80;99.90;;;;;;6187917;23;20005;-84
2022/11/10 07:20:28;;;;;;;23.45;3.70;;;10.80;99.90;;;;;;6186440;23;20076;-84
2022/11/10 07:23:02;;;;;;;15.00;4.35;;;10.80;99.90;;;;;;6161899;23;20009;-84
2022/11/10 07:25:30;;;;;;;23.20;3.85;;;10.80;99.90;;;;;;6185455;23;20020;-84
2022/11/10 07:27:58;;;;;;;15.50;3.60;;;10.80;99.90;;;;;;6185631;23;20008;-84
2022/11/10 07:30:25;;;;;;;12.48;2.67;;;10.80;99.90;;;;;;6187031;23;20001;-80
2022/11/10 07:33:11;;;;;;;15.85;3.22;;;10.90;99.90;;;;;;6186450;23;20005;-80
2022/11/10 07:35:37;;;;;;;17.98;4.50;;;10.80;99.90;;;;;;6186303;23;20091;-81
2022/11/10 07:38:07;;;;;;;19.15;3.50;;;10.80;99.90;;;;;;6183873;23;20369;-81
2022/11/10 07:40:33;;;;;;;15.93;3.50;;;10.80;99.90;;;;;;6184405;23;20013;-80
2022/11/10 07:42:59;;;;;;;12.43;3.20;;;10.80;99.90;;;;;;6185923;23;20059;-80
2022/11/10 07:45:25;;;;;;;20.25;3.17;;;10.80;99.90;;;;;;6159907;23;20005;-81
2022/11/10 07:47:51;;;;;;;19.13;3.47;;;10.80;99.90;;;;;;6184842;23;20443;-83
2022/11/10 07:50:17;;;;;;;20.45;3.50;;;10.80;99.90;;;;;;6159961;23;20005;-83
2022/11/10 07:52:43;;;;;;;18.42;3.60;;;10.80;99.90;;;;;;6159877;23;20024;-83
2022/11/10 07:55:09;;;;;;;15.32;2.88;;;10.90;99.90;;;;;;6186442;23;20080;-83
2022/11/10 07:57:34;;;;;;;19.15;3.75;;;10.90;99.90;;;;;;6186162;23;20067;-83
2022/11/10 08:00:00;;;;;;;13.05;2.95;;;10.90;99.90;;;;;;6159774;23;20005;-83
2022/11/10 08:02:26;;;;;;;20.77;4.03;;;10.90;99.90;;;;;;6159755;23;20074;-84
2022/11/10 08:04:52;;;;;;;19.90;3.95;;;10.90;99.90;;;;;;6185024;23;20087;-84
2022/11/10 08:07:18;;;;;;;15.43;3.80;;;10.90;99.90;;;;;;6135662;23;20005;-84
2022/11/10 08:09:43;;;;;;;14.98;3.30;;;10.90;99.90;;;;;;6160020;23;20504;-84
2022/11/10 08:12:09;;;;;;;16.23;3.35;;;10.90;99.90;;;;;;6186386;23;20005;-84
2022/11/10 08:14:35;;;;;;;16.42;3.45;;;11.00;99.90;;;;;;6159685;23;20005;-84
2022/11/10 08:17:01;;;;;;;24.23;4.85;;;11.00;99.90;;;;;;6184832;23;20064;-82
2022/11/10 08:19:27;;;;;;;17.77;4.43;;;11.00;99.90;;;;;;6184787;23;20015;-84
2022/11/10 08:21:52;;;;;;;15.07;3.92;;;11.00;99.90;;;;;;6159698;23;20018;-84
2022/11/10 08:24:18;;;;;;;17.00;3.20;;;11.00;99.90;;;;;;6189027;23;20022;-83
2022/11/10 08:26:44;;;;;;;23.92;4.85;;;11.00;99.90;;;;;;6216155;23;20369;-83
2022/11/10 08:29:09;;;;;;;17.73;3.80;;;11.00;99.90;;;;;;6164479;23;20379;-83
2022/11/10 08:31:37;;;;;;;20.20;3.75;;;11.10;99.90;;;;;;6164513;23;20340;-83
2022/11/10 08:34:02;;;;;;;15.73;3.65;;;11.10;99.90;;;;;;6215840;23;20313;-83
2022/11/10 08:36:28;;;;;;;23.00;4.60;;;11.10;99.90;;;;;;6164479;23;20015;-81
2022/11/10 08:38:54;;;;;;;19.33;3.65;;;11.20;99.90;;;;;;6214293;23;20013;-81
2022/11/10 08:41:19;;;;;;;12.38;3.35;;;11.20;99.90;;;;;;6188951;23;20431;-81
2022/11/10 08:43:46;;;;;;;19.00;3.58;;;11.20;99.90;;;;;;6213990;23;20032;-81
2022/11/10 08:46:12;;;;;;;23.30;4.43;;;11.30;99.90;;;;;;6214208;23;20009;-81
2022/11/10 08:48:38;;;;;;;14.40;3.22;;;11.30;99.90;;;;;;6190111;23;20301;-81
2022/11/10 08:51:04;;;;;;;14.07;3.30;;;11.40;99.90;;;;;;6192430;23;20451;-81
2022/11/10 08:53:29;;;;;;;21.80;3.97;;;11.40;99.90;;;;;;6217626;23;20020;-81
2022/11/10 08:55:59;;;;;;;15.73;4.05;;;11.50;99.90;;;;;;6168477;23;20027;-81
2022/11/10 08:58:24;;;;;;;14.95;3.22;;;11.60;99.90;;;;;;6192831;23;20004;-81
2022/11/10 09:00:50;;;;;;;15.77;3.60;;;11.60;99.90;;;;;;6219045;23;20004;-80
2022/11/10 09:03:19;;;;;;;17.40;3.58;;;11.70;99.90;;;;;;6217304;23;20091;-80
2022/11/10 09:05:46;;;;;;;16.02;2.97;;;11.80;99.90;;;;;;6218973;23;20008;-81
2022/11/10 09:08:12;;;;;;;18.45;3.75;;;11.80;99.90;;;;;;6192574;23;20008;-81
2022/11/10 09:10:40;;;;;;;15.90;3.20;;;11.90;99.90;;;;;;6192522;23;20013;-84
2022/11/10 09:13:10;;;;;;;13.75;3.47;;;11.90;99.90;;;;;;6219687;23;20038;-84
2022/11/10 09:15:36;;;;;;;16.63;3.60;;;12.00;99.90;;;;;;6219440;23;20424;-84
2022/11/10 09:18:04;;;;;;;17.85;3.15;;;12.00;99.90;;;;;;6192553;23;20012;-84
2022/11/10 09:20:31;;;;;;;17.50;3.90;;;12.00;99.90;;;;;;6192432;23;20028;-84
2022/11/10 09:23:07;;;;;;;15.55;3.15;;;12.10;99.90;;;;;;6167606;23;20019;-83
2022/11/10 09:25:33;;;;;;;18.13;3.67;;;12.10;99.90;;;;;;6187476;23;20025;-84
2022/11/10 09:27:58;;;;;;;14.95;2.58;;;12.20;99.90;;;;;;6162607;23;20032;-83
2022/11/10 09:30:25;;;;;;;16.55;2.60;;;12.30;99.90;;;;;;6162532;23;20012;-83
2022/11/10 09:32:55;;;;;;;15.65;3.00;;;12.30;99.90;;;;;;6187472;23;20440;-82
2022/11/10 09:35:21;;;;;;;13.32;3.47;;;12.40;99.90;;;;;;6187328;23;20012;-82
2022/11/10 09:37:47;;;;;;;18.33;4.18;;;12.50;99.90;;;;;;6188775;23;20000;-83
2022/11/10 09:40:37;;;;;;;15.45;3.00;;;12.50;99.90;;;;;;6162431;23;20005;-82
2022/11/10 09:43:05;;;;;;;11.82;2.90;;;12.60;99.90;;;;;;6187179;23;20163;-83
2022/11/10 09:45:38;;;;;;;24.45;4.10;;;12.70;99.90;;;;;;6187385;23;20088;-83
2022/11/10 09:48:14;;;;;;;18.00;3.38;;;12.70;99.90;;;;;;6188905;23;20029;-83
2022/11/10 09:51:22;;;;;;;14.55;3.05;;;12.80;99.90;;;;;;6189038;23;20005;-83
2022/11/10 09:54:04;;;;;;;17.38;3.30;;;12.90;99.90;;;;;;6163427;23;20012;-83
2022/11/10 09:56:35;;;;;;;16.77;3.03;;;12.90;99.90;;;;;;6189564;23;20059;-84
2022/11/10 09:59:11;;;;;;;13.55;3.35;;;13.00;99.90;;;;;;6188799;23;20084;-84
2022/11/10 10:01:59;;;;;;;15.13;2.75;;;13.00;99.90;;;;;;6186409;23;20408;-84
2022/11/10 10:04:25;;;;;;;17.90;4.03;;;13.10;99.90;;;;;;6185529;23;20009;-84
2022/11/10 10:07:17;;;;;;;14.20;2.95;;;13.20;99.90;;;;;;6185640;23;20089;-84
2022/11/10 10:10:01;;;;;;;18.77;3.88;;;13.30;99.90;;;;;;6185705;23;20001;-84
2022/11/10 10:12:59;;;;;;;14.10;3.17;;;13.30;99.90;;;;;;6185566;23;20001;-84
2022/11/10 10:16:12;;;;;;;12.07;3.17;;;13.40;99.90;;;;;;6187844;23;19997;-84
2022/11/10 10:19:00;;;;;;;14.63;3.60;;;13.50;99.90;;;;;;6200679;23;20028;-84
2022/11/10 10:21:43;;;;;;;14.55;3.30;;;13.60;99.90;;;;;;6186954;23;20001;-84
2022/11/10 10:24:15;;;;;;;20.50;3.40;;;13.70;99.90;;;;;;6190238;23;20005;-85
2022/11/10 10:26:54;;;;;;;14.85;3.97;;;13.80;99.90;;;;;;6190538;23;20008;-84
2022/11/10 10:29:26;;;;;;;18.27;3.40;;;13.80;99.90;;;;;;6217117;23;20016;-84
2022/11/10 10:31:53;;;;;;;19.13;3.13;;;13.90;99.90;;;;;;6217097;23;20420;-84
2022/11/10 10:34:24;;;;;;;17.90;3.53;;;14.00;99.90;;;;;;6190500;23;20029;-81
2022/11/10 10:36:49;;;;;;;13.88;3.22;;;14.10;99.90;;;;;;6217206;23;20028;-81
2022/11/10 10:39:29;;;;;;;20.38;4.30;;;14.20;99.90;;;;;;6191188;23;20320;-81
2022/11/10 10:42:14;;;;;;;15.80;3.17;;;14.30;99.90;;;;;;6217676;23;20098;-81
2022/11/10 10:44:39;;;;;;;12.43;2.97;;;14.30;99.90;;;;;;6216937;23;20155;-81
2022/11/10 10:47:05;;;;;;;14.60;2.97;;;14.40;99.90;;;;;;6190348;23;20004;-81
2022/11/10 10:49:37;;;;;;;14.13;3.25;;;14.50;99.90;;;;;;6190337;23;20340;-81
2022/11/10 10:52:17;;;;;;;24.25;3.65;;;14.50;99.90;;;;;;6166709;23;20008;-84
2022/11/10 10:54:42;;;;;;;13.75;2.75;;;14.60;99.90;;;;;;6216813;23;19996;-84
2022/11/10 10:57:24;;;;;;;11.80;2.70;;;14.70;99.90;;;;;;6216703;23;20007;-84
2022/11/10 10:59:51;;;;;;;10.05;2.70;;;14.80;99.90;;;;;;6216324;23;20024;-83
2022/11/10 11:02:31;;;;;;;11.77;3.13;;;14.80;99.90;;;;;;6189557;23;20005;-84
2022/11/10 11:05:16;;;;;;;17.80;3.30;;;14.90;99.90;;;;;;6216148;23;20442;-81
2022/11/10 11:07:58;;;;;;;14.73;2.92;;;15.00;99.90;;;;;;6189648;23;20008;-84
2022/11/10 11:10:27;;;;;;;13.52;3.92;;;15.10;99.90;;;;;;6189954;23;20409;-84
2022/11/10 11:12:53;;;;;;;16.42;3.42;;;15.10;99.90;;;;;;6190252;23;20004;-84
2022/11/10 11:15:31;;;;;;;15.48;3.40;;;15.20;99.90;;;;;;6215291;23;20343;-83
2022/11/10 11:17:59;;;;;;;13.43;2.70;;;15.30;99.90;;;;;;6164720;23;20063;-83
2022/11/10 11:20:53;;;;;;;9.18;2.58;;;15.40;99.90;;;;;;6189660;23;20036;-83
2022/11/10 11:24:00;;;;;;;14.43;3.05;;;15.40;99.90;;;;;;6217143;23;20005;-80
2022/11/10 11:26:43;;;;;;;11.57;3.25;;;15.50;99.90;;;;;;6189384;23;20012;-80
2022/11/10 11:29:43;;;;;;;14.45;3.25;;;15.60;99.90;;;;;;6189405;23;20004;-80
2022/11/10 11:32:30;;;;;;;13.97;2.97;;;15.60;99.90;;;;;;6189936;23;20367;-80
2022/11/10 11:35:15;;;;;;;16.80;3.08;;;15.60;99.90;;;;;;6189731;23;20555;-80
2022/11/10 11:37:56;;;;;;;14.32;3.58;;;15.70;99.90;;;;;;6214888;23;20309;-81
2022/11/10 11:40:46;;;;;;;17.40;4.80;;;15.70;99.90;;;;;;6214840;23;20004;-82
2022/11/10 11:43:50;;;;;;;18.23;2.95;;;15.80;99.90;;;;;;6215545;23;20012;-82
2022/11/10 11:46:47;;;;;;;14.65;2.70;;;15.90;99.90;;;;;;6214643;23;20336;-82
2022/11/10 11:49:33;;;;;;;15.52;3.33;;;15.90;99.90;;;;;;6218538;23;20003;-83
2022/11/10 11:52:40;;;;;;;13.00;3.05;;;16.10;99.90;;;;;;6214992;23;20332;-83
2022/11/10 11:55:27;;;;;;;14.57;3.30;;;16.10;99.90;;;;;;6134257;23;20004;-84
2022/11/10 11:58:01;;;;;;;10.68;2.65;;;16.20;99.90;;;;;;6214963;23;20001;-80
2022/11/10 12:00:30;;;;;;;12.20;2.95;;;16.30;99.90;;;;;;6189680;23;20008;-80
2022/11/10 12:03:23;;;;;;;14.18;2.65;;;16.40;99.90;;;;;;6189589;23;20012;-79
2022/11/10 12:06:40;;;;;;;16.85;2.75;;;16.40;99.90;;;;;;6189670;23;20000;-80
2022/11/10 12:09:19;;;;;;;18.20;3.75;;;16.50;99.90;;;;;;6041930;23;20081;-80
2022/11/10 12:12:11;;;;;;;12.65;2.53;;;16.60;99.90;;;;;;6074336;23;20001;-80
2022/11/10 12:15:07;;;;;;;12.27;2.50;;;16.60;99.90;;;;;;6214706;23;20012;-82
2022/11/10 12:17:48;;;;;;;15.05;3.20;;;16.70;99.90;;;;;;6216263;23;20054;-82
2022/11/10 12:20:23;;;;;;;11.77;2.50;;;16.70;99.90;;;;;;6216042;23;20001;-82
2022/11/10 12:22:52;;;;;;;17.80;2.90;;;16.80;99.90;;;;;;6214401;23;20059;-82
2022/11/10 12:25:18;;;;;;;11.45;2.88;;;16.90;99.90;;;;;;6215564;23;20016;-82
2022/11/10 12:27:54;;;;;;;11.50;2.40;;;16.90;99.90;;;;;;6216263;23;20001;-82
2022/11/10 12:30:20;;;;;;;14.38;2.70;;;17.00;99.90;;;;;;6189010;23;20083;-80
2022/11/10 12:33:05;;;;;;;8.90;2.30;;;17.10;99.90;;;;;;6189113;23;20043;-80
2022/11/10 12:35:39;;;;;;;14.20;2.67;;;17.20;99.90;;;;;;6216176;23;20428;-80
2022/11/10 12:38:33;;;;;;;12.35;2.80;;;17.20;99.60;;;;;;6216176;23;20375;-80
2022/11/10 12:41:06;;;;;;;9.25;2.08;;;17.30;99.00;;;;;;6189389;23;20004;-80
2022/11/10 12:43:35;;;;;;;11.68;2.67;;;17.30;99.20;;;;;;6190159;23;20416;-80
2022/11/10 12:46:11;;;;;;;15.05;3.20;;;17.40;98.50;;;;;;6215971;23;20301;-80
2022/11/10 12:49:15;;;;;;;11.77;2.63;;;17.40;98.60;;;;;;6189460;23;20007;-81
2022/11/10 12:52:23;;;;;;;11.82;3.03;;;17.40;98.50;;;;;;6193020;23;20007;-82
2022/11/10 12:54:49;;;;;;;10.88;1.95;;;17.40;98.30;;;;;;6215713;23;20416;-81
2022/11/10 12:57:20;;;;;;;11.27;2.50;;;17.30;98.00;;;;;;6215773;23;20009;-81
2022/11/10 12:59:53;;;;;;;;;;;17.30;97.90;;;;;;6189710;23;20000;-81
2022/11/10 13:02:31;;;;;;;8.63;1.80;;;17.20;97.40;;;;;;6216120;23;19904;-82
2022/11/10 13:05:29;;;;;;;10.05;2.08;;;17.20;97.60;;;;;;6214233;23;20053;-80
2022/11/10 13:08:26;;;;;;;9.82;2.00;;;17.20;97.60;;;;;;6189047;23;19997;-80
2022/11/10 13:11:03;;;;;;;14.57;2.10;;;17.10;97.70;;;;;;6215622;23;20008;-80
2022/11/10 13:13:39;;;;;;;11.60;1.80;;;17.00;97.70;;;;;;6215802;23;20012;-80